createdAt,value
2019-03-12T00:00:59.149Z,66.09
2019-03-12T00:01:59.089Z,66.00
2019-03-12T00:02:59.032Z,66.09
2019-03-12T00:03:59.005Z,66.09
2019-03-12T00:04:58.915Z,65.34
2019-03-12T00:05:58.862Z,64.68
2019-03-12T00:06:58.832Z,65.15
2019-03-12T00:07:58.743Z,65.15
2019-03-12T00:08:58.684Z,65.25
2019-03-12T00:09:58.624Z,64.87
2019-03-12T00:10:58.605Z,64.68
2019-03-12T00:11:58.507Z,64.68
2019-03-12T00:12:58.449Z,65.15
2019-03-12T00:13:58.390Z,65.25
2019-03-12T00:14:58.330Z,64.39
2019-03-12T00:15:58.313Z,64.68
2019-03-12T00:16:58.218Z,64.20
2019-03-12T00:17:58.159Z,64.30
2019-03-12T00:18:58.096Z,64.20
2019-03-12T00:19:58.045Z,64.49
2019-03-12T00:20:58.038Z,64.01
2019-03-12T00:21:57.926Z,63.64
2019-03-12T00:22:57.865Z,64.20
2019-03-12T00:23:57.838Z,63.92
2019-03-12T00:24:57.824Z,64.30
2019-03-12T00:25:57.694Z,63.07
2019-03-12T00:26:57.664Z,62.69
2019-03-12T00:27:57.576Z,62.97
2019-03-12T00:28:57.518Z,62.88
2019-03-12T00:29:57.458Z,62.97
2019-03-12T00:30:57.398Z,63.26
2019-03-12T00:31:57.373Z,63.26
2019-03-12T00:32:57.282Z,63.07
2019-03-12T00:33:57.228Z,62.50
2019-03-12T00:34:57.169Z,63.16
2019-03-12T00:35:57.106Z,63.16
2019-03-12T00:36:57.079Z,62.88
2019-03-12T00:37:57.021Z,63.45
2019-03-12T00:38:56.945Z,63.07
2019-03-12T00:39:56.875Z,63.26
2019-03-12T00:40:56.815Z,63.23
2019-03-12T00:41:56.766Z,63.79
2019-03-12T00:42:56.764Z,63.26
2019-03-12T00:43:56.641Z,62.94
2019-03-12T00:44:56.589Z,62.94
2019-03-12T00:45:56.525Z,63.04
2019-03-12T00:46:56.467Z,62.37
2019-03-12T00:47:56.443Z,61.61
2019-03-12T00:48:56.351Z,61.99
2019-03-12T00:49:56.291Z,61.99
2019-03-12T00:50:56.231Z,61.24
2019-03-12T00:51:56.174Z,61.90
2019-03-12T00:52:56.151Z,62.56
2019-03-12T00:53:56.060Z,62.47
2019-03-12T00:54:56.016Z,61.99
2019-03-12T00:55:55.972Z,62.28
2019-03-12T00:56:55.889Z,61.90
2019-03-12T00:57:55.828Z,62.66
2019-03-12T00:58:55.765Z,61.99
2019-03-12T00:59:56.516Z,62.09
2019-03-12T01:00:55.682Z,62.18
2019-03-12T01:01:55.592Z,62.28
2019-03-12T01:02:55.531Z,61.80
2019-03-12T01:03:55.472Z,61.43
2019-03-12T01:04:55.414Z,62.09
2019-03-12T01:05:55.404Z,61.71
2019-03-12T01:06:55.300Z,61.90
2019-03-12T01:07:55.241Z,62.66
2019-03-12T01:08:55.181Z,61.43
2019-03-12T01:09:55.122Z,60.77
2019-03-12T01:10:55.098Z,60.77
2019-03-12T01:11:55.006Z,60.77
2019-03-12T01:12:54.948Z,60.96
2019-03-12T01:13:54.929Z,60.96
2019-03-12T01:14:54.831Z,60.48
2019-03-12T01:15:54.771Z,60.48
2019-03-12T01:16:54.715Z,60.67
2019-03-12T01:17:54.652Z,60.29
2019-03-12T01:18:54.636Z,60.29
2019-03-12T01:19:54.538Z,60.58
2019-03-12T01:20:54.480Z,59.72
2019-03-12T01:21:54.422Z,59.81
2019-03-12T01:22:54.368Z,59.81
2019-03-12T01:23:54.344Z,60.38
2019-03-12T01:24:54.245Z,59.72
2019-03-12T01:25:54.189Z,60.10
2019-03-12T01:26:54.133Z,59.91
2019-03-12T01:27:54.077Z,60.58
2019-03-12T01:28:54.043Z,60.58
2019-03-12T01:29:53.985Z,60.58
2019-03-12T01:30:53.892Z,59.91
2019-03-12T01:31:53.838Z,60.19
2019-03-12T01:32:53.779Z,60.00
2019-03-12T01:33:53.720Z,60.00
2019-03-12T01:34:53.694Z,60.48
2019-03-12T01:35:53.603Z,60.38
2019-03-12T01:36:53.662Z,60.48
2019-03-12T01:37:53.485Z,60.48
2019-03-12T01:38:53.430Z,59.81
2019-03-12T01:39:53.365Z,59.53
2019-03-12T01:40:53.390Z,59.34
2019-03-12T01:41:53.291Z,59.53
2019-03-12T01:42:53.192Z,59.91
2019-03-12T01:43:53.133Z,59.81
2019-03-12T01:44:53.074Z,60.38
2019-03-12T01:45:53.018Z,60.00
2019-03-12T01:46:53.109Z,59.91
2019-03-12T01:47:52.899Z,60.38
2019-03-12T01:48:52.844Z,60.48
2019-03-12T01:49:52.792Z,60.58
2019-03-12T01:50:52.725Z,60.48
2019-03-12T01:51:52.701Z,59.91
2019-03-12T01:52:52.610Z,59.53
2019-03-12T01:53:52.582Z,60.19
2019-03-12T01:54:52.492Z,59.81
2019-03-12T01:55:52.434Z,59.81
2019-03-12T01:56:52.376Z,60.10
2019-03-12T01:57:52.350Z,60.58
2019-03-12T01:58:52.260Z,60.48
2019-03-12T01:59:52.200Z,60.86
2019-03-12T02:00:52.172Z,60.19
2019-03-12T02:01:52.083Z,60.48
2019-03-12T02:02:52.055Z,60.58
2019-03-12T02:03:51.972Z,60.38
2019-03-12T02:04:51.943Z,60.67
2019-03-12T02:05:51.849Z,60.67
2019-03-12T02:06:51.795Z,60.58
2019-03-12T02:07:51.732Z,60.29
2019-03-12T02:08:51.706Z,60.38
2019-03-12T02:09:51.616Z,60.29
2019-03-12T02:10:51.558Z,59.72
2019-03-12T02:11:51.534Z,60.38
2019-03-12T02:12:51.443Z,60.10
2019-03-12T02:13:51.384Z,59.81
2019-03-12T02:14:51.323Z,59.72
2019-03-12T02:15:51.303Z,59.53
2019-03-12T02:16:51.206Z,59.81
2019-03-12T02:17:51.148Z,58.97
2019-03-12T02:18:51.093Z,59.53
2019-03-12T02:19:51.034Z,59.91
2019-03-12T02:20:51.026Z,60.67
2019-03-12T02:21:50.914Z,60.10
2019-03-12T02:22:50.861Z,60.48
2019-03-12T02:23:50.796Z,60.19
2019-03-12T02:24:53.011Z,60.38
2019-03-12T02:25:50.715Z,60.38
2019-03-12T02:26:50.623Z,60.48
2019-03-12T02:27:50.565Z,60.48
2019-03-12T02:28:50.507Z,60.38
2019-03-12T02:29:50.450Z,60.10
2019-03-12T02:30:50.415Z,60.77
2019-03-12T02:31:50.332Z,60.86
2019-03-12T02:32:50.275Z,60.48
2019-03-12T02:33:50.248Z,59.91
2019-03-12T02:34:50.155Z,59.72
2019-03-12T02:35:50.106Z,59.81
2019-03-12T02:36:50.040Z,61.05
2019-03-12T02:37:50.018Z,60.67
2019-03-12T02:38:49.921Z,60.86
2019-03-12T02:39:49.869Z,60.86
2019-03-12T02:40:49.844Z,60.96
2019-03-12T02:41:49.750Z,60.48
2019-03-12T02:42:49.697Z,60.67
2019-03-12T02:43:49.635Z,60.19
2019-03-12T02:44:49.574Z,60.29
2019-03-12T02:45:49.551Z,60.29
2019-03-12T02:46:49.502Z,60.67
2019-03-12T02:47:49.398Z,60.96
2019-03-12T02:48:49.512Z,61.15
2019-03-12T02:49:49.283Z,61.90
2019-03-12T02:50:49.219Z,62.56
2019-03-12T02:51:49.197Z,62.56
2019-03-12T02:52:49.106Z,62.09
2019-03-12T02:53:49.051Z,62.56
2019-03-12T02:54:48.989Z,62.37
2019-03-12T02:55:48.961Z,63.04
2019-03-12T02:56:48.870Z,63.60
2019-03-12T02:57:48.813Z,64.07
2019-03-12T02:58:48.788Z,64.55
2019-03-12T02:59:48.698Z,64.93
2019-03-12T03:00:48.641Z,64.64
2019-03-12T03:01:48.580Z,64.83
2019-03-12T03:02:48.559Z,64.93
2019-03-12T03:03:48.495Z,65.21
2019-03-12T03:04:48.407Z,66.06
2019-03-12T03:05:48.351Z,65.69
2019-03-12T03:06:48.285Z,66.82
2019-03-12T03:07:48.228Z,67.20
2019-03-12T03:08:48.276Z,67.77
2019-03-12T03:09:48.114Z,67.77
2019-03-12T03:10:48.055Z,67.68
2019-03-12T03:11:50.836Z,69.00
2019-03-12T03:12:47.936Z,70.51
2019-03-12T03:13:47.907Z,70.32
2019-03-12T03:14:47.825Z,69.47
2019-03-12T03:15:47.789Z,69.85
2019-03-12T03:16:47.708Z,70.23
2019-03-12T03:17:47.652Z,70.42
2019-03-12T03:18:47.586Z,72.78
2019-03-12T03:19:47.529Z,74.96
2019-03-12T03:20:47.511Z,75.24
2019-03-12T03:21:47.412Z,74.68
2019-03-12T03:22:47.350Z,74.58
2019-03-12T03:23:47.291Z,74.02
2019-03-12T03:24:47.232Z,73.54
2019-03-12T03:25:47.207Z,73.35
2019-03-12T03:26:47.117Z,75.72
2019-03-12T03:27:47.058Z,75.91
2019-03-12T03:28:47.004Z,76.00
2019-03-12T03:29:46.981Z,75.05
2019-03-12T03:30:46.886Z,75.62
2019-03-12T03:31:46.866Z,74.68
2019-03-12T03:32:46.785Z,75.43
2019-03-12T03:33:46.725Z,75.72
2019-03-12T03:34:46.657Z,75.43
2019-03-12T03:35:46.596Z,75.62
2019-03-12T03:36:46.565Z,75.43
2019-03-12T03:37:46.475Z,75.62
2019-03-12T03:38:46.414Z,75.81
2019-03-12T03:39:46.355Z,75.81
2019-03-12T03:40:46.327Z,76.10
2019-03-12T03:41:46.239Z,77.70
2019-03-12T03:42:46.187Z,77.33
2019-03-12T03:43:46.153Z,76.95
2019-03-12T03:44:46.063Z,78.37
2019-03-12T03:45:46.006Z,79.50
2019-03-12T03:46:46.017Z,80.45
2019-03-12T03:47:45.888Z,79.79
2019-03-12T03:48:45.829Z,79.03
2019-03-12T03:49:45.771Z,79.69
2019-03-12T03:50:45.710Z,80.36
2019-03-12T03:51:45.686Z,79.69
2019-03-12T03:52:45.596Z,79.03
2019-03-12T03:53:45.567Z,78.94
2019-03-12T03:54:45.498Z,80.26
2019-03-12T03:55:45.427Z,80.83
2019-03-12T03:56:45.356Z,81.49
2019-03-12T03:57:45.299Z,85.28
2019-03-12T03:58:45.271Z,83.95
2019-03-12T03:59:45.185Z,86.98
2019-03-12T04:00:45.125Z,85.28
2019-03-12T04:01:45.071Z,84.61
2019-03-12T04:02:45.051Z,83.95
2019-03-12T04:03:44.952Z,82.25
2019-03-12T04:04:44.915Z,81.68
2019-03-12T04:05:44.833Z,84.05
2019-03-12T04:06:44.778Z,83.58
2019-03-12T04:07:44.776Z,83.01
2019-03-12T04:08:44.657Z,87.17
2019-03-12T04:09:44.619Z,86.22
2019-03-12T04:10:44.535Z,85.28
2019-03-12T04:11:44.487Z,86.41
2019-03-12T04:12:44.422Z,86.51
2019-03-12T04:13:44.362Z,84.33
2019-03-12T04:14:44.330Z,86.51
2019-03-12T04:15:44.246Z,87.08
2019-03-12T04:16:44.187Z,86.98
2019-03-12T04:17:44.123Z,86.60
2019-03-12T04:18:44.098Z,84.90
2019-03-12T04:19:44.004Z,85.19
2019-03-12T04:20:43.947Z,86.13
2019-03-12T04:21:43.888Z,87.55
2019-03-12T04:22:43.830Z,87.27
2019-03-12T04:23:43.807Z,85.57
2019-03-12T04:24:43.713Z,87.65
2019-03-12T04:25:43.653Z,86.60
2019-03-12T04:26:43.632Z,85.28
2019-03-12T04:27:43.533Z,86.60
2019-03-12T04:28:43.528Z,85.19
2019-03-12T04:29:43.422Z,84.42
2019-03-12T04:30:43.357Z,86.51
2019-03-12T04:31:43.333Z,85.75
2019-03-12T04:32:43.243Z,85.66
2019-03-12T04:33:43.284Z,86.04
2019-03-12T04:34:43.120Z,85.57
2019-03-12T04:35:43.096Z,87.36
2019-03-12T04:36:43.007Z,86.60
2019-03-12T04:37:42.945Z,85.94
2019-03-12T04:38:42.886Z,88.21
2019-03-12T04:39:42.857Z,88.40
2019-03-12T04:40:42.766Z,87.84
2019-03-12T04:41:42.714Z,86.79
2019-03-12T04:42:42.651Z,85.66
2019-03-12T04:43:42.622Z,86.89
2019-03-12T04:44:42.531Z,86.60
2019-03-12T04:45:42.470Z,86.41
2019-03-12T04:46:42.442Z,87.36
2019-03-12T04:47:42.354Z,86.98
2019-03-12T04:48:42.294Z,86.70
2019-03-12T04:49:42.237Z,86.98
2019-03-12T04:50:42.175Z,88.59
2019-03-12T04:51:42.153Z,88.12
2019-03-12T04:52:42.089Z,87.36
2019-03-12T04:53:42.002Z,86.41
2019-03-12T04:54:41.947Z,87.55
2019-03-12T04:55:41.884Z,86.89
2019-03-12T04:56:41.852Z,86.51
2019-03-12T04:57:41.793Z,85.85
2019-03-12T04:58:41.701Z,86.04
2019-03-12T04:59:41.643Z,85.85
2019-03-12T05:00:41.589Z,85.47
2019-03-12T05:01:41.558Z,85.28
2019-03-12T05:02:41.467Z,85.28
2019-03-12T05:03:41.446Z,86.13
2019-03-12T05:04:41.348Z,85.28
2019-03-12T05:05:41.287Z,84.39
2019-03-12T05:06:41.233Z,85.24
2019-03-12T05:07:41.171Z,85.33
2019-03-12T05:08:41.162Z,84.39
2019-03-12T05:09:41.056Z,83.76
2019-03-12T05:10:40.989Z,84.61
2019-03-12T05:11:40.939Z,85.14
2019-03-12T05:12:40.874Z,86.32
2019-03-12T05:13:40.846Z,85.05
2019-03-12T05:14:40.755Z,86.79
2019-03-12T05:15:40.754Z,86.37
2019-03-12T05:16:40.644Z,87.23
2019-03-12T05:17:40.577Z,86.94
2019-03-12T05:18:40.521Z,88.17
2019-03-12T05:19:40.460Z,88.78
2019-03-12T05:20:40.430Z,88.68
2019-03-12T05:21:40.344Z,89.87
2019-03-12T05:22:40.321Z,89.06
2019-03-12T05:23:40.251Z,89.44
2019-03-12T05:24:40.168Z,89.16
2019-03-12T05:25:40.143Z,89.21
2019-03-12T05:26:40.043Z,89.31
2019-03-12T05:27:39.985Z,88.97
2019-03-12T05:28:39.923Z,89.02
2019-03-12T05:29:39.865Z,89.82
2019-03-12T05:30:39.841Z,89.50
2019-03-12T05:31:39.793Z,90.25
2019-03-12T05:32:39.689Z,92.00
2019-03-12T05:33:39.628Z,91.58
2019-03-12T05:34:39.570Z,93.04
2019-03-12T05:35:39.508Z,91.34
2019-03-12T05:36:39.492Z,91.91
2019-03-12T05:37:39.401Z,90.96
2019-03-12T05:38:39.330Z,91.53
2019-03-12T05:39:39.272Z,90.34
2019-03-12T05:40:39.215Z,91.05
2019-03-12T05:41:39.186Z,91.62
2019-03-12T05:42:39.094Z,91.34
2019-03-12T05:43:39.069Z,91.10
2019-03-12T05:44:38.981Z,91.48
2019-03-12T05:45:38.925Z,91.29
2019-03-12T05:46:38.859Z,91.10
2019-03-12T05:47:38.828Z,91.53
2019-03-12T05:48:38.741Z,91.01
2019-03-12T05:49:38.684Z,90.58
2019-03-12T05:50:38.626Z,91.24
2019-03-12T05:51:38.563Z,90.63
2019-03-12T05:52:38.540Z,90.86
2019-03-12T05:53:38.444Z,89.97
2019-03-12T05:54:38.384Z,89.82
2019-03-12T05:55:38.324Z,89.50
2019-03-12T05:56:38.266Z,89.69
2019-03-12T05:57:38.247Z,89.59
2019-03-12T05:58:38.145Z,89.02
2019-03-12T05:59:38.087Z,87.51
2019-03-12T06:00:38.031Z,89.02
2019-03-12T06:01:37.970Z,88.78
2019-03-12T06:02:37.940Z,89.02
2019-03-12T06:03:37.849Z,89.35
2019-03-12T06:04:37.794Z,91.05
2019-03-12T06:05:37.741Z,89.63
2019-03-12T06:06:37.702Z,91.72
2019-03-12T06:07:37.615Z,92.00
2019-03-12T06:08:37.554Z,91.43
2019-03-12T06:09:37.496Z,92.38
2019-03-12T06:10:37.467Z,91.62
2019-03-12T06:11:37.379Z,91.91
2019-03-12T06:12:37.322Z,92.57
2019-03-12T06:13:37.284Z,93.23
2019-03-12T06:14:37.203Z,92.76
2019-03-12T06:15:37.168Z,92.94
2019-03-12T06:16:37.082Z,92.76
2019-03-12T06:17:37.023Z,92.38
2019-03-12T06:18:36.965Z,92.19
2019-03-12T06:19:36.904Z,92.29
2019-03-12T06:20:36.876Z,92.19
2019-03-12T06:21:36.789Z,91.34
2019-03-12T06:22:36.725Z,91.81
2019-03-12T06:23:36.699Z,92.57
2019-03-12T06:24:36.609Z,92.19
2019-03-12T06:25:36.552Z,92.94
2019-03-12T06:26:36.492Z,93.32
2019-03-12T06:27:36.429Z,92.29
2019-03-12T06:28:36.405Z,93.80
2019-03-12T06:29:36.312Z,93.80
2019-03-12T06:30:36.252Z,93.70
2019-03-12T06:31:36.195Z,92.85
2019-03-12T06:32:36.137Z,92.76
2019-03-12T06:33:36.110Z,94.08
2019-03-12T06:34:36.062Z,93.23
2019-03-12T06:35:35.959Z,92.38
2019-03-12T06:36:35.902Z,92.47
2019-03-12T06:37:35.845Z,93.13
2019-03-12T06:38:35.817Z,93.99
2019-03-12T06:39:35.721Z,94.08
2019-03-12T06:40:35.665Z,93.32
2019-03-12T06:41:35.604Z,93.70
2019-03-12T06:42:35.600Z,93.61
2019-03-12T06:43:35.486Z,95.12
2019-03-12T06:44:35.526Z,95.40
2019-03-12T06:45:35.371Z,95.40
2019-03-12T06:46:35.314Z,96.54
2019-03-12T06:47:35.324Z,96.35
2019-03-12T06:48:35.196Z,95.69
2019-03-12T06:49:35.136Z,95.97
2019-03-12T06:50:35.079Z,94.93
2019-03-12T06:51:35.015Z,94.65
2019-03-12T06:52:35.003Z,92.76
2019-03-12T06:53:34.902Z,89.25
2019-03-12T06:54:34.839Z,89.06
2019-03-12T06:55:34.786Z,89.16
2019-03-12T06:56:34.727Z,88.31
2019-03-12T06:57:34.711Z,87.36
2019-03-12T06:58:34.607Z,85.19
2019-03-12T06:59:34.548Z,85.09
2019-03-12T07:00:34.491Z,84.33
2019-03-12T07:01:34.437Z,85.47
2019-03-12T07:02:34.411Z,85.75
2019-03-12T07:03:34.318Z,84.52
2019-03-12T07:04:34.294Z,84.14
2019-03-12T07:05:34.201Z,85.38
2019-03-12T07:06:34.139Z,85.75
2019-03-12T07:07:34.084Z,86.32
2019-03-12T07:08:34.058Z,86.98
2019-03-12T07:09:33.967Z,85.94
2019-03-12T07:10:33.908Z,86.79
2019-03-12T07:11:33.848Z,86.60
2019-03-12T07:12:36.685Z,85.42
2019-03-12T07:13:33.762Z,86.04
2019-03-12T07:14:33.673Z,85.90
2019-03-12T07:15:33.646Z,86.37
2019-03-12T07:16:33.555Z,87.17
2019-03-12T07:17:33.496Z,88.87
2019-03-12T07:18:33.438Z,88.49
2019-03-12T07:19:33.419Z,88.21
2019-03-12T07:20:33.448Z,89.25
2019-03-12T07:21:33.263Z,89.82
2019-03-12T07:22:33.202Z,92.38
2019-03-12T07:23:33.146Z,97.63
2019-03-12T07:24:33.092Z,99.99
2019-03-12T07:25:33.061Z,99.99
2019-03-12T07:26:32.971Z,99.99
2019-03-12T07:27:32.916Z,99.99
2019-03-12T07:28:32.854Z,99.99
2019-03-12T07:29:32.797Z,99.99
2019-03-12T07:30:32.778Z,99.99
2019-03-12T07:31:32.686Z,99.99
2019-03-12T07:32:32.633Z,99.99
2019-03-12T07:33:32.571Z,98.49
2019-03-12T07:34:36.975Z,99.90
2019-03-12T07:35:32.506Z,97.73
2019-03-12T07:36:32.399Z,99.43
2019-03-12T07:37:32.339Z,99.90
2019-03-12T07:38:32.284Z,99.99
2019-03-12T07:39:32.225Z,99.99
2019-03-12T07:40:32.199Z,99.99
2019-03-12T07:41:32.951Z,99.99
2019-03-12T07:42:32.059Z,99.99
2019-03-12T07:43:31.997Z,99.99
2019-03-12T07:44:31.943Z,99.99
2019-03-12T07:45:31.922Z,99.99
2019-03-12T07:46:31.891Z,99.99
2019-03-12T07:47:36.083Z,99.99
2019-03-12T07:48:31.719Z,99.99
2019-03-12T07:49:31.661Z,99.99
2019-03-12T07:50:31.607Z,99.99
2019-03-12T07:51:31.601Z,99.99
2019-03-12T07:52:31.535Z,99.99
2019-03-12T07:53:31.441Z,99.99
2019-03-12T07:54:31.388Z,99.99
2019-03-12T07:55:31.330Z,99.99
2019-03-12T07:56:31.307Z,99.99
2019-03-12T07:57:31.250Z,99.99
2019-03-12T07:58:35.693Z,99.99
2019-03-12T07:59:31.107Z,99.99
2019-03-12T08:00:31.054Z,99.99
2019-03-12T08:01:30.999Z,99.99
2019-03-12T08:02:30.979Z,99.99
2019-03-12T08:03:30.885Z,99.99
2019-03-12T08:04:30.830Z,99.99
2019-03-12T08:05:30.803Z,99.99
2019-03-12T08:06:30.719Z,99.99
2019-03-12T08:07:30.701Z,99.99
2019-03-12T08:08:30.608Z,99.99
2019-03-12T08:09:30.549Z,99.99
2019-03-12T08:10:33.525Z,99.99
2019-03-12T08:11:30.440Z,99.99
2019-03-12T08:12:30.422Z,99.99
2019-03-12T08:13:30.336Z,99.99
2019-03-12T08:14:30.284Z,99.99
2019-03-12T08:15:30.232Z,99.99
2019-03-12T08:16:30.181Z,99.99
2019-03-12T08:17:30.165Z,99.99
2019-03-12T08:18:30.080Z,99.41
2019-03-12T08:19:30.059Z,97.03
2019-03-12T08:20:29.983Z,94.13
2019-03-12T08:21:29.934Z,96.55
2019-03-12T08:22:29.921Z,97.60
2019-03-12T08:23:29.872Z,96.84
2019-03-12T08:24:29.878Z,95.41
2019-03-12T08:25:29.800Z,98.27
2019-03-12T08:26:29.701Z,98.93
2019-03-12T08:27:29.656Z,97.13
2019-03-12T08:28:29.614Z,97.13
2019-03-12T08:29:29.569Z,99.99
2019-03-12T08:30:29.557Z,98.69
2019-03-12T08:31:29.476Z,99.07
2019-03-12T08:32:29.435Z,98.17
2019-03-12T08:33:29.425Z,97.36
2019-03-12T08:34:29.347Z,99.99
2019-03-12T08:35:29.338Z,98.08
2019-03-12T08:36:29.260Z,97.03
2019-03-12T08:37:29.215Z,97.41
2019-03-12T08:38:29.181Z,94.46
2019-03-12T08:39:29.129Z,94.27
2019-03-12T08:40:29.128Z,99.99
2019-03-12T08:41:29.042Z,97.60
2019-03-12T08:42:29.011Z,93.55
2019-03-12T08:43:28.957Z,92.17
2019-03-12T08:44:28.919Z,87.60
2019-03-12T08:45:28.904Z,87.31
2019-03-12T08:46:28.836Z,87.36
2019-03-12T08:47:28.786Z,91.13
2019-03-12T08:48:28.811Z,86.32
2019-03-12T08:49:28.730Z,85.75
2019-03-12T08:50:28.655Z,88.23
2019-03-12T08:51:28.616Z,95.60
2019-03-12T08:52:28.568Z,99.44
2019-03-12T08:53:28.523Z,99.99
2019-03-12T08:54:28.519Z,99.99
2019-03-12T08:55:28.434Z,99.99
2019-03-12T08:56:28.387Z,99.99
2019-03-12T08:57:28.340Z,99.99
2019-03-12T08:58:28.294Z,99.99
2019-03-12T08:59:28.291Z,99.99
2019-03-12T09:00:28.199Z,99.99
2019-03-12T09:01:28.163Z,99.99
2019-03-12T09:02:28.104Z,99.99
2019-03-12T09:03:28.053Z,99.99
2019-03-12T09:04:28.043Z,99.99
2019-03-12T09:05:27.980Z,99.99
2019-03-12T09:06:27.907Z,99.99
2019-03-12T09:07:27.856Z,99.99
2019-03-12T09:08:27.806Z,99.99
2019-03-12T09:09:27.798Z,99.99
2019-03-12T09:10:27.707Z,99.99
2019-03-12T09:11:27.658Z,99.99
2019-03-12T09:12:27.608Z,99.99
2019-03-12T09:13:27.557Z,99.99
2019-03-12T09:14:27.536Z,97.13
2019-03-12T09:15:27.460Z,93.32
2019-03-12T09:16:27.410Z,89.55
2019-03-12T09:17:27.360Z,93.03
2019-03-12T09:18:27.333Z,88.84
2019-03-12T09:19:27.303Z,86.02
2019-03-12T09:20:27.213Z,81.82
2019-03-12T09:21:27.162Z,83.06
2019-03-12T09:22:27.115Z,78.86
2019-03-12T09:23:27.073Z,79.96
2019-03-12T09:24:27.062Z,77.06
2019-03-12T09:25:26.971Z,78.86
2019-03-12T09:26:26.925Z,78.96
2019-03-12T09:27:26.875Z,76.67
2019-03-12T09:28:26.834Z,78.91
2019-03-12T09:29:26.827Z,77.86
2019-03-12T09:30:26.735Z,77.44
2019-03-12T09:31:26.689Z,79.82
2019-03-12T09:32:26.645Z,78.49
2019-03-12T09:33:26.594Z,77.19
2019-03-12T09:34:26.601Z,76.54
2019-03-12T09:35:26.514Z,76.64
2019-03-12T09:36:26.455Z,78.67
2019-03-12T09:37:26.410Z,75.96
2019-03-12T09:38:26.359Z,75.87
2019-03-12T09:39:26.354Z,75.81
2019-03-12T09:40:26.265Z,76.79
2019-03-12T09:41:26.218Z,77.89
2019-03-12T09:42:26.171Z,79.88
2019-03-12T09:43:26.122Z,78.20
2019-03-12T09:44:26.115Z,76.14
2019-03-12T09:45:26.026Z,76.23
2019-03-12T09:46:25.979Z,75.18
2019-03-12T09:47:25.932Z,73.68
2019-03-12T09:48:25.883Z,77.30
2019-03-12T09:49:27.590Z,77.64
2019-03-12T09:50:25.787Z,78.27
2019-03-12T09:51:25.738Z,78.88
2019-03-12T09:52:25.691Z,77.22
2019-03-12T09:53:25.643Z,75.89
2019-03-12T09:54:25.623Z,75.42
2019-03-12T09:55:25.543Z,77.64
2019-03-12T09:56:25.496Z,77.30
2019-03-12T09:57:25.470Z,76.16
2019-03-12T09:58:25.396Z,73.30
2019-03-12T09:59:25.348Z,74.54
2019-03-12T10:00:25.301Z,73.77
2019-03-12T10:01:25.256Z,73.01
2019-03-12T10:02:25.237Z,71.72
2019-03-12T10:03:25.153Z,72.38
2019-03-12T10:04:25.230Z,72.57
2019-03-12T10:05:25.057Z,73.47
2019-03-12T10:06:25.002Z,71.12
2019-03-12T10:07:24.991Z,70.83
2019-03-12T10:08:24.968Z,67.65
2019-03-12T10:09:24.871Z,68.41
2019-03-12T10:10:24.901Z,69.56
2019-03-12T10:11:24.759Z,70.79
2019-03-12T10:12:24.738Z,69.37
2019-03-12T10:13:24.661Z,69.33
2019-03-12T10:14:24.638Z,67.48
2019-03-12T10:15:24.556Z,69.23
2019-03-12T10:16:24.507Z,68.47
2019-03-12T10:17:24.459Z,68.44
2019-03-12T10:18:24.407Z,68.34
2019-03-12T10:19:24.390Z,69.39
2019-03-12T10:20:24.345Z,68.12
2019-03-12T10:21:24.259Z,69.45
2019-03-12T10:22:24.211Z,70.69
2019-03-12T10:23:24.159Z,70.56
2019-03-12T10:24:24.138Z,69.99
2019-03-12T10:25:24.061Z,70.18
2019-03-12T10:26:24.041Z,69.99
2019-03-12T10:27:23.956Z,70.08
2019-03-12T10:28:23.911Z,69.04
2019-03-12T10:29:23.859Z,69.42
2019-03-12T10:30:23.806Z,69.42
2019-03-12T10:31:23.790Z,69.89
2019-03-12T10:32:23.706Z,70.18
2019-03-12T10:33:23.654Z,70.43
2019-03-12T10:34:29.704Z,71.53
2019-03-12T10:35:23.554Z,74.10
2019-03-12T10:36:23.681Z,74.96
2019-03-12T10:37:23.453Z,75.72
2019-03-12T10:38:23.399Z,75.24
2019-03-12T10:39:23.353Z,74.26
2019-03-12T10:40:23.298Z,74.20
2019-03-12T10:41:23.279Z,72.07
2019-03-12T10:42:23.195Z,71.78
2019-03-12T10:43:23.149Z,73.08
2019-03-12T10:44:23.093Z,74.03
2019-03-12T10:45:23.044Z,75.04
2019-03-12T10:46:23.019Z,77.31
2019-03-12T10:47:22.968Z,77.12
2019-03-12T10:48:22.891Z,78.78
2019-03-12T10:49:22.836Z,77.45
2019-03-12T10:50:22.779Z,76.69
2019-03-12T10:51:22.758Z,76.21
2019-03-12T10:52:22.676Z,76.78
2019-03-12T10:53:22.625Z,76.50
2019-03-12T10:54:22.604Z,76.50
2019-03-12T10:55:22.517Z,75.93
2019-03-12T10:56:22.467Z,75.93
2019-03-12T10:57:22.417Z,76.21
2019-03-12T10:58:22.423Z,76.88
2019-03-12T10:59:22.308Z,74.69
2019-03-12T11:00:22.256Z,75.07
2019-03-12T11:01:22.236Z,76.40
2019-03-12T11:02:22.147Z,77.45
2019-03-12T11:03:22.100Z,77.20
2019-03-12T11:04:22.046Z,77.39
2019-03-12T11:05:22.056Z,75.24
2019-03-12T11:06:21.973Z,75.62
2019-03-12T11:07:21.883Z,73.57
2019-03-12T11:08:21.839Z,72.62
2019-03-12T11:09:21.786Z,70.90
2019-03-12T11:10:21.729Z,70.33
2019-03-12T11:11:21.711Z,72.67
2019-03-12T11:12:21.627Z,72.11
2019-03-12T11:13:21.600Z,72.01
2019-03-12T11:14:21.554Z,72.77
2019-03-12T11:15:21.464Z,71.02
2019-03-12T11:16:21.411Z,71.72
2019-03-12T11:17:21.360Z,72.35
2019-03-12T11:18:21.308Z,71.50
2019-03-12T11:19:21.294Z,71.66
2019-03-12T11:20:21.202Z,73.55
2019-03-12T11:21:21.155Z,73.11
2019-03-12T11:22:21.095Z,72.99
2019-03-12T11:23:21.044Z,73.46
2019-03-12T11:24:21.024Z,72.99
2019-03-12T11:25:27.145Z,73.02
2019-03-12T11:26:20.885Z,74.07
2019-03-12T11:27:20.834Z,73.49
2019-03-12T11:28:20.810Z,72.77
2019-03-12T11:29:20.729Z,70.87
2019-03-12T11:30:20.680Z,70.68
2019-03-12T11:31:20.656Z,71.59
2019-03-12T11:32:20.569Z,70.74
2019-03-12T11:33:20.552Z,71.97
2019-03-12T11:34:20.491Z,72.74
2019-03-12T11:35:20.411Z,73.30
2019-03-12T11:36:20.385Z,73.49
2019-03-12T11:37:20.305Z,72.74
2019-03-12T11:38:20.290Z,73.78
2019-03-12T11:39:20.199Z,73.11
2019-03-12T11:40:20.191Z,74.35
2019-03-12T11:41:20.138Z,76.35
2019-03-12T11:42:20.042Z,76.29
2019-03-12T11:43:20.055Z,74.63
2019-03-12T11:44:19.939Z,74.26
2019-03-12T11:45:25.789Z,76.35
2019-03-12T11:46:19.829Z,76.92
2019-03-12T11:47:19.789Z,76.96
2019-03-12T11:48:19.772Z,76.76
2019-03-12T11:49:19.692Z,74.10
2019-03-12T11:50:19.693Z,73.63
2019-03-12T11:51:19.573Z,73.53
2019-03-12T11:52:19.513Z,72.01
2019-03-12T11:53:19.497Z,71.12
2019-03-12T11:54:19.789Z,71.12
2019-03-12T11:55:19.411Z,71.31
2019-03-12T11:56:19.336Z,71.22
2019-03-12T11:57:19.267Z,70.68
2019-03-12T11:58:19.238Z,70.36
2019-03-12T11:59:19.164Z,71.02
2019-03-12T12:00:19.511Z,70.26
2019-03-12T12:01:19.041Z,71.41
2019-03-12T12:02:18.984Z,69.88
2019-03-12T12:03:18.972Z,71.50
2019-03-12T12:04:18.880Z,71.59
2019-03-12T12:05:18.829Z,71.50
2019-03-12T12:06:18.773Z,69.88
2019-03-12T12:07:18.761Z,70.32
2019-03-12T12:08:18.757Z,70.70
2019-03-12T12:09:18.616Z,71.75
2019-03-12T12:10:18.574Z,74.12
2019-03-12T12:11:18.511Z,73.18
2019-03-12T12:12:18.456Z,73.08
2019-03-12T12:13:18.446Z,73.46
2019-03-12T12:14:18.351Z,73.93
2019-03-12T12:15:18.298Z,74.88
2019-03-12T12:16:18.243Z,72.89
2019-03-12T12:17:18.191Z,73.18
2019-03-12T12:18:18.167Z,74.73
2019-03-12T12:19:18.082Z,73.40
2019-03-12T12:20:28.712Z,72.83
2019-03-12T12:21:18.003Z,72.74
2019-03-12T12:22:17.925Z,73.49
2019-03-12T12:23:17.869Z,73.46
2019-03-12T12:24:17.819Z,73.36
2019-03-12T12:25:17.814Z,73.46
2019-03-12T12:26:17.712Z,73.88
2019-03-12T12:27:17.656Z,74.22
2019-03-12T12:28:17.611Z,74.82
2019-03-12T12:29:17.583Z,73.27
2019-03-12T12:30:17.497Z,72.03
2019-03-12T12:31:17.444Z,73.08
2019-03-12T12:32:17.413Z,72.89
2019-03-12T12:33:17.337Z,72.03
2019-03-12T12:34:17.323Z,72.03
2019-03-12T12:35:17.233Z,72.79
2019-03-12T12:36:17.179Z,72.89
2019-03-12T12:37:17.123Z,72.79
2019-03-12T12:38:17.069Z,72.22
2019-03-12T12:39:17.059Z,72.89
2019-03-12T12:40:16.961Z,72.03
2019-03-12T12:41:16.916Z,72.03
2019-03-12T12:42:16.856Z,70.61
2019-03-12T12:43:16.800Z,70.89
2019-03-12T12:44:16.785Z,70.23
2019-03-12T12:45:16.693Z,70.23
2019-03-12T12:46:16.639Z,70.23
2019-03-12T12:47:16.588Z,69.85
2019-03-12T12:48:16.530Z,70.51
2019-03-12T12:49:16.508Z,69.94
2019-03-12T12:50:16.426Z,70.32
2019-03-12T12:51:16.373Z,69.66
2019-03-12T12:52:16.317Z,70.51